Time;durP1;ratioP1;P1;durP2;ratioP2;P2;SDS_P1;SDS_P2;PMS_P1;PMS_P2;Temp;Humidity;BMP_temperature;BMP_pressure;BME280_temperature;BME280_humidity;BME280_pressure;Samples;Min_cycle;Max_cycle;Signal;HPM_P1;HPM_P2
2023/11/24 00:01:48;;;;;;;3.40;2.10;;;;;;;2.65;100.00;98017.36;108892;1259;61739;-54
2023/11/24 00:04:16;;;;;;;5.10;3.20;;;;;;;2.65;100.00;98017.35;108849;1253;60110;-56
2023/11/24 00:06:44;;;;;;;3.20;2.30;;;;;;;2.65;100.00;98011.15;108893;1258;72778;-54
2023/11/24 00:09:12;;;;;;;2.50;2.10;;;;;;;2.65;100.00;98010.26;108890;1253;67193;-54
2023/11/24 00:11:42;;;;;;;3.30;1.90;;;;;;;2.66;100.00;98003.67;108932;1256;72894;-55
2023/11/24 00:14:10;;;;;;;3.40;1.90;;;;;;;2.68;100.00;98009.09;108931;1253;61617;-54
2023/11/24 00:16:38;;;;;;;3.00;2.00;;;;;;;2.67;100.00;98005.23;108994;1254;61435;-53
2023/11/24 00:19:07;;;;;;;4.90;2.70;;;;;;;2.66;100.00;98005.60;108978;1254;72654;-53
2023/11/24 00:21:34;;;;;;;3.60;2.70;;;;;;;2.67;100.00;98005.77;108908;1253;66732;-52
2023/11/24 00:24:04;;;;;;;3.10;2.30;;;;;;;2.68;100.00;98000.39;108897;1259;71467;-53
2023/11/24 00:26:32;;;;;;;3.80;2.90;;;;;;;2.70;100.00;97995.20;108863;1258;60950;-52
2023/11/24 00:29:00;;;;;;;2.80;2.40;;;;;;;2.71;100.00;97996.20;108833;1260;60380;-53
2023/11/24 00:31:28;;;;;;;4.70;2.80;;;;;;;2.73;100.00;97987.23;108988;1254;73253;-54
2023/11/24 00:33:58;;;;;;;4.10;2.30;;;;;;;2.75;100.00;97978.29;108864;1254;66933;-54
2023/11/24 00:36:26;;;;;;;3.50;2.90;;;;;;;2.77;100.00;97976.27;109036;1253;73201;-54
2023/11/24 00:38:54;;;;;;;3.50;2.80;;;;;;;2.78;100.00;97975.55;108937;1254;61581;-54
2023/11/24 00:41:22;;;;;;;5.10;3.20;;;;;;;2.78;100.00;97975.69;107990;1259;59879;-55
2023/11/24 00:43:50;;;;;;;4.70;3.30;;;;;;;2.79;100.00;97966.27;105317;1260;74430;-56
2023/11/24 00:46:18;;;;;;;4.70;3.30;;;;;;;2.80;100.00;97971.52;105186;1260;66811;-55
2023/11/24 00:48:47;;;;;;;4.40;3.30;;;;;;;2.81;100.00;97973.07;107862;1254;71440;-56
2023/11/24 00:51:14;;;;;;;4.60;3.30;;;;;;;2.82;100.00;97967.72;106015;1260;60563;-54
2023/11/24 00:53:42;;;;;;;4.10;2.90;;;;;;;2.81;100.00;97966.50;105324;1257;60338;-56
2023/11/24 00:56:09;;;;;;;3.80;2.40;;;;;;;2.80;100.00;97955.27;105329;1254;72674;-56
2023/11/24 00:58:37;;;;;;;2.90;2.60;;;;;;;2.78;100.00;97945.43;105151;1263;67637;-54
2023/11/24 01:01:09;;;;;;;4.10;3.00;;;;;;;2.76;100.00;97946.01;105453;1259;72307;-54
2023/11/24 01:03:36;;;;;;;3.90;2.40;;;;;;;2.75;100.00;97942.16;105272;1259;60524;-55
2023/11/24 01:06:05;;;;;;;5.40;3.20;;;;;;;2.74;100.00;97934.05;105205;1262;61388;-53
2023/11/24 01:08:32;;;;;;;4.10;3.70;;;;;;;2.73;100.00;97933.05;105174;1254;72580;-54
2023/11/24 01:11:02;;;;;;;6.60;3.30;;;;;;;2.72;100.00;97929.59;105315;1254;65656;-54
2023/11/24 01:13:32;;;;;;;2.70;2.20;;;;;;;2.69;100.00;97922.61;105296;1257;71478;-52
2023/11/24 01:16:02;;;;;;;3.40;2.50;;;;;;;2.69;100.00;97920.88;105282;1254;60559;-53
2023/11/24 01:18:30;;;;;;;6.60;3.80;;;;;;;2.67;100.00;97914.20;105342;1264;59312;-54
2023/11/24 01:20:58;;;;;;;5.20;2.70;;;;;;;2.65;100.00;97908.61;107032;1254;73446;-53
2023/11/24 01:23:27;;;;;;;4.30;2.90;;;;;;;2.65;100.00;97901.73;105562;1254;69446;-56
2023/11/24 01:25:54;;;;;;;3.90;2.60;;;;;;;2.63;100.00;97899.87;105415;1255;72237;-57
2023/11/24 01:28:22;;;;;;;4.10;2.80;;;;;;;2.62;100.00;97894.27;105888;1259;61016;-52
2023/11/24 01:30:50;;;;;;;3.90;2.60;;;;;;;2.60;100.00;97886.19;105400;1259;60515;-56
2023/11/24 01:33:21;;;;;;;4.30;2.50;;;;;;;2.59;100.00;97884.46;105352;1255;74190;-56
2023/11/24 01:35:49;;;;;;;3.00;2.30;;;;;;;2.58;100.00;97875.30;106941;1254;65079;-56
2023/11/24 01:38:17;;;;;;;4.10;2.60;;;;;;;2.58;100.00;97871.95;105354;1260;71388;-55
2023/11/24 01:40:44;;;;;;;3.50;1.80;;;;;;;2.58;100.00;97864.33;105254;1260;61578;-54
2023/11/24 01:43:12;;;;;;;2.70;2.20;;;;;;;2.58;100.00;97859.71;105475;1254;62592;-56
2023/11/24 01:45:39;;;;;;;2.80;2.40;;;;;;;2.58;100.00;97858.50;105326;1258;73918;-53
2023/11/24 01:48:08;;;;;;;2.50;1.90;;;;;;;2.58;100.00;97860.96;106056;1258;66564;-54
2023/11/24 01:50:36;;;;;;;3.00;2.30;;;;;;;2.58;100.00;97857.06;105299;1258;71951;-54
2023/11/24 01:53:04;;;;;;;4.40;2.00;;;;;;;2.59;100.00;97853.14;105317;1259;60468;-53
2023/11/24 01:55:31;;;;;;;5.50;2.30;;;;;;;2.60;100.00;97844.95;105370;1258;60345;-54
2023/11/24 01:57:59;;;;;;;2.80;1.90;;;;;;;2.61;100.00;97836.92;105241;1260;72648;-54
2023/11/24 02:00:26;;;;;;;2.40;1.70;;;;;;;2.62;100.00;97838.10;105266;1255;67049;-53
2023/11/24 02:02:57;;;;;;;4.00;1.90;;;;;;;2.64;100.00;97830.38;108859;1253;71403;-54
2023/11/24 02:05:25;;;;;;;4.10;2.10;;;;;;;2.65;100.00;97829.81;107941;1254;62513;-54
2023/11/24 02:07:53;;;;;;;3.00;2.00;;;;;;;2.66;100.00;97825.70;105420;1257;60806;-55
2023/11/24 02:10:20;;;;;;;2.80;1.50;;;;;;;2.67;100.00;97823.16;105289;1260;73821;-54
2023/11/24 02:12:49;;;;;;;4.00;2.40;;;;;;;2.69;100.00;97823.64;105294;1257;66972;-54
2023/11/24 02:15:16;;;;;;;4.20;1.90;;;;;;;2.70;100.00;97816.15;108830;1257;72459;-56
2023/11/24 02:17:44;;;;;;;2.40;1.50;;;;;;;2.71;100.00;97811.84;105399;1255;61780;-51
2023/11/24 02:20:13;;;;;;;4.40;2.40;;;;;;;2.73;100.00;97803.23;105480;1257;60584;-55
2023/11/24 02:22:42;;;;;;;3.50;1.60;;;;;;;2.75;100.00;97797.11;105294;1254;76350;-54
2023/11/24 02:25:10;;;;;;;2.20;1.40;;;;;;;2.77;100.00;97798.08;109088;1254;66066;-54
2023/11/24 02:27:38;;;;;;;2.40;1.30;;;;;;;2.79;100.00;97790.89;108659;1257;71899;-52
2023/11/24 02:30:06;;;;;;;5.40;1.60;;;;;;;2.83;100.00;97790.55;105519;1257;61175;-57
2023/11/24 02:32:34;;;;;;;1.50;1.20;;;;;;;2.84;100.00;97782.14;105387;1254;60120;-53
2023/11/24 02:35:02;;;;;;;2.80;1.40;;;;;;;2.86;100.00;97784.52;105360;1254;73896;-53
2023/11/24 02:37:30;;;;;;;1.60;1.20;;;;;;;2.88;100.00;97780.35;108897;1254;66414;-55
2023/11/24 02:39:57;;;;;;;6.40;2.00;;;;;;;2.90;100.00;97776.37;108982;1253;72944;-53
2023/11/24 02:42:26;;;;;;;1.90;1.30;;;;;;;2.92;100.00;97782.12;108919;1254;60545;-54
2023/11/24 02:44:53;;;;;;;5.90;1.50;;;;;;;2.94;100.00;97778.80;108952;1254;60477;-54
2023/11/24 02:47:21;;;;;;;2.20;1.20;;;;;;;2.97;100.00;97783.63;108967;1254;74380;-55
2023/11/24 02:49:48;;;;;;;3.70;1.60;;;;;;;3.00;100.00;97785.43;108943;1254;65665;-55
2023/11/24 02:52:16;;;;;;;2.90;1.80;;;;;;;3.03;100.00;97781.39;108947;1254;72692;-54
2023/11/24 02:54:44;;;;;;;2.90;1.80;;;;;;;3.06;100.00;97770.61;108855;1254;59720;-54
2023/11/24 02:57:12;;;;;;;3.00;1.40;;;;;;;3.09;100.00;97768.88;108855;1254;60046;-54
2023/11/24 02:59:39;;;;;;;3.70;1.70;;;;;;;3.12;100.00;97756.70;109039;1254;73905;-54
2023/11/24 03:02:07;;;;;;;3.50;1.40;;;;;;;3.15;100.00;97759.39;109036;1254;65642;-55
2023/11/24 03:04:34;;;;;;;3.00;1.60;;;;;;;3.16;100.00;97750.98;108945;1254;72755;-55
2023/11/24 03:07:04;;;;;;;2.70;1.60;;;;;;;3.18;100.00;97744.67;109025;1253;59870;-55
2023/11/24 03:09:32;;;;;;;4.10;2.10;;;;;;;3.20;100.00;97742.98;109018;1252;59389;-53
2023/11/24 03:11:59;;;;;;;2.20;1.60;;;;;;;3.22;100.00;97739.16;109051;1254;74187;-56
2023/11/24 03:14:28;;;;;;;3.10;1.50;;;;;;;3.24;100.00;97737.08;108971;1252;67678;-55
2023/11/24 03:16:56;;;;;;;2.20;2.00;;;;;;;3.26;100.00;97736.30;108963;1252;72769;-54
2023/11/24 03:19:23;;;;;;;1.40;1.10;;;;;;;3.27;100.00;97740.48;108953;1253;60858;-52
2023/11/24 03:21:51;;;;;;;1.90;1.10;;;;;;;3.30;100.00;97742.83;108973;1254;60111;-54
2023/11/24 03:24:18;;;;;;;3.10;1.50;;;;;;;3.32;100.00;97740.72;109040;1253;74442;-56
2023/11/24 03:26:46;;;;;;;2.10;1.70;;;;;;;3.34;100.00;97733.89;106104;1254;65749;-54
2023/11/24 03:29:14;;;;;;;2.40;1.30;;;;;;;3.37;100.00;97733.77;105243;1253;72026;-57
2023/11/24 03:31:41;;;;;;;2.10;1.60;;;;;;;3.39;100.00;97733.65;105387;1255;60543;-56
2023/11/24 03:34:10;;;;;;;1.50;1.30;;;;;;;3.41;100.00;97723.45;105239;1254;60563;-55
2023/11/24 03:36:38;;;;;;;2.30;1.60;;;;;;;3.43;100.00;97724.25;108969;1253;73848;-56
2023/11/24 03:39:06;;;;;;;2.40;1.50;;;;;;;3.43;100.00;97710.20;108470;1253;66292;-54
2023/11/24 03:41:35;;;;;;;2.70;1.90;;;;;;;3.45;100.00;97708.89;105385;1254;71138;-54
2023/11/24 03:44:03;;;;;;;3.40;1.40;;;;;;;3.46;100.00;97703.89;105347;1254;61033;-54
2023/11/24 03:46:31;;;;;;;1.70;1.30;;;;;;;3.47;100.00;97700.11;105400;1253;60552;-54
2023/11/24 03:48:58;;;;;;;2.00;1.50;;;;;;;3.47;100.00;97695.48;105551;1253;72613;-57
2023/11/24 03:51:26;;;;;;;4.40;1.20;;;;;;;3.48;100.00;97679.85;105277;1253;66077;-54
2023/11/24 03:53:53;;;;;;;1.80;1.50;;;;;;;3.49;100.00;97664.33;105268;1257;72770;-53
2023/11/24 03:56:21;;;;;;;1.60;1.40;;;;;;;3.49;100.00;97652.47;105313;1259;60505;-55
2023/11/24 03:58:48;;;;;;;4.40;1.60;;;;;;;3.49;100.00;97664.67;105251;1252;60705;-56
2023/11/24 04:01:16;;;;;;;2.80;1.60;;;;;;;3.49;100.00;97655.80;105394;1258;72637;-51
2023/11/24 04:03:46;;;;;;;1.70;1.30;;;;;;;3.50;100.00;97647.80;105622;1255;68271;-54
2023/11/24 04:06:14;;;;;;;1.50;1.20;;;;;;;3.50;100.00;97639.97;105712;1257;71621;-57
2023/11/24 04:08:42;;;;;;;2.20;1.30;;;;;;;3.51;100.00;97649.66;108122;1254;59643;-58
2023/11/24 04:11:10;;;;;;;1.50;1.20;;;;;;;3.50;100.00;97637.66;105422;1254;62510;-54
2023/11/24 04:13:38;;;;;;;1.30;1.00;;;;;;;3.51;100.00;97640.14;105357;1254;71668;-54
2023/11/24 04:16:06;;;;;;;1.60;1.20;;;;;;;3.50;100.00;97632.89;105354;1255;65837;-52
2023/11/24 04:18:34;;;;;;;1.40;1.10;;;;;;;3.49;100.00;97636.84;105844;1253;72713;-55
2023/11/24 04:21:02;;;;;;;1.60;1.10;;;;;;;3.50;100.00;97634.32;105252;1255;61084;-54
2023/11/24 04:23:29;;;;;;;1.60;1.10;;;;;;;3.51;100.00;97636.95;102873;1253;3691920;-55
2023/11/24 04:26:43;;;;;;;1.60;1.40;;;;;;;3.54;100.00;97702.92;102071;1292;602403;-55
2023/11/24 04:29:11;;;;;;;1.40;1.20;;;;;;;3.53;100.00;97745.52;105371;1272;61913;-53
2023/11/24 04:31:38;;;;;;;1.90;1.30;;;;;;;3.54;100.00;97754.16;104427;1272;60058;-56
2023/11/24 04:34:06;;;;;;;1.60;1.30;;;;;;;3.56;100.00;97760.64;104494;1267;71056;-52
2023/11/24 04:36:34;;;;;;;2.40;1.30;;;;;;;3.57;100.00;97766.05;104539;1267;65669;-52
2023/11/24 04:39:02;;;;;;;1.30;1.20;;;;;;;3.59;100.00;97771.97;104409;1269;71489;-55
2023/11/24 04:41:30;;;;;;;1.50;1.00;;;;;;;3.61;100.00;97756.61;101984;1269;3541437;-55
2023/11/24 04:43:57;;;;;;;1.90;1.70;;;;;;;3.64;100.00;97750.83;104417;1266;59781;-54
2023/11/24 04:46:25;;;;;;;4.80;1.20;;;;;;;3.66;100.00;97765.92;104466;1269;72294;-54
2023/11/24 04:48:52;;;;;;;1.60;1.30;;;;;;;3.68;100.00;97768.65;105255;1268;65679;-55
2023/11/24 04:51:20;;;;;;;1.90;1.60;;;;;;;3.70;100.00;97764.11;104444;1269;72848;-55
2023/11/24 04:53:47;;;;;;;2.10;1.60;;;;;;;3.72;100.00;97756.58;104771;1266;60769;-52
2023/11/24 04:56:15;;;;;;;2.10;1.70;;;;;;;3.74;100.00;97743.16;104617;1266;60029;-51
2023/11/24 04:58:43;;;;;;;2.60;1.30;;;;;;;3.75;100.00;97745.38;104735;1260;73838;-54
2023/11/24 05:01:11;;;;;;;3.20;1.20;;;;;;;3.76;100.00;97733.11;104556;1269;67088;-52
2023/11/24 05:03:39;;;;;;;3.10;1.50;;;;;;;3.77;100.00;97722.43;105012;1266;71529;-53
2023/11/24 05:06:07;;;;;;;2.00;1.40;;;;;;;3.77;100.00;97716.73;104744;1264;60812;-53
2023/11/24 05:08:34;;;;;;;1.80;1.30;;;;;;;3.78;100.00;97725.73;104692;1266;59737;-50
2023/11/24 05:11:02;;;;;;;1.70;1.20;;;;;;;3.80;100.00;97752.27;104379;1266;72496;-52
2023/11/24 05:13:30;;;;;;;1.50;1.20;;;;;;;3.81;100.00;97749.02;104573;1262;67235;-54
2023/11/24 05:15:57;;;;;;;2.20;1.30;;;;;;;3.82;100.00;97754.27;104749;1262;71452;-51
2023/11/24 05:18:25;;;;;;;2.10;1.40;;;;;;;3.84;100.00;97760.05;106871;1257;59705;-55
2023/11/24 05:20:53;;;;;;;2.70;1.70;;;;;;;3.84;100.00;97768.02;104595;1260;62906;-49
2023/11/24 05:23:21;;;;;;;2.00;1.30;;;;;;;3.85;100.00;97769.21;104536;1262;73112;-53
2023/11/24 05:25:48;;;;;;;2.10;1.30;;;;;;;3.86;100.00;97768.25;104640;1262;67537;-55
2023/11/24 05:28:16;;;;;;;2.00;1.40;;;;;;;3.86;100.00;97760.27;105059;1262;73226;-53
2023/11/24 05:30:44;;;;;;;2.10;1.40;;;;;;;3.88;100.00;97754.15;104143;1258;62614;-53
2023/11/24 05:33:12;;;;;;;1.60;1.50;;;;;;;3.88;100.00;97764.98;104354;1258;60160;-51
2023/11/24 05:35:40;;;;;;;1.20;1.10;;;;;;;3.89;100.00;97757.85;104551;1257;71907;-51
2023/11/24 05:38:08;;;;;;;1.40;1.00;;;;;;;3.88;100.00;97753.60;104212;1257;66953;-54
2023/11/24 05:40:36;;;;;;;1.60;1.20;;;;;;;3.89;100.00;97755.86;108351;1258;71464;-55
2023/11/24 05:43:03;;;;;;;1.80;1.30;;;;;;;3.90;100.00;97753.69;108538;1263;59732;-54
2023/11/24 05:45:34;;;;;;;1.50;1.10;;;;;;;3.92;100.00;97764.95;108596;1260;60016;-54
2023/11/24 05:48:02;;;;;;;1.40;1.30;;;;;;;3.94;100.00;97758.79;108658;1261;71250;-53
2023/11/24 05:50:29;;;;;;;2.30;1.30;;;;;;;3.95;100.00;97753.96;108743;1258;67074;-52
2023/11/24 05:52:56;;;;;;;1.90;1.20;;;;;;;3.96;100.00;97754.08;108677;1257;72721;-57
2023/11/24 05:55:24;;;;;;;1.40;1.20;;;;;;;3.98;100.00;97761.07;108580;1263;61456;-53
2023/11/24 05:57:51;;;;;;;1.40;1.10;;;;;;;4.00;100.00;97775.67;108750;1261;60071;-54
2023/11/24 06:00:19;;;;;;;1.80;1.30;;;;;;;4.02;100.00;97770.58;108690;1263;71859;-56
2023/11/24 06:02:46;;;;;;;3.40;1.00;;;;;;;4.04;100.00;97774.40;108738;1257;66735;-53
2023/11/24 06:05:15;;;;;;;1.80;1.20;;;;;;;4.05;100.00;97773.63;108584;1257;73127;-56
2023/11/24 06:07:43;;;;;;;1.30;1.10;;;;;;;4.06;100.00;97771.11;108741;1257;61408;-53
2023/11/24 06:10:12;;;;;;;2.90;0.90;;;;;;;4.08;100.00;97766.73;108736;1257;58957;-52
2023/11/24 06:12:39;;;;;;;1.30;1.20;;;;;;;4.10;100.00;97764.67;108668;1260;70813;-58
2023/11/24 06:15:09;;;;;;;1.90;1.20;;;;;;;4.11;100.00;97764.42;108669;1257;67045;-54
2023/11/24 06:17:36;;;;;;;0.90;0.80;;;;;;;4.12;100.00;97771.65;108781;1258;72763;-52
2023/11/24 06:20:05;;;;;;;1.30;1.00;;;;;;;4.14;100.00;97771.57;108571;1258;59354;-55
2023/11/24 06:22:32;;;;;;;1.20;0.90;;;;;;;4.16;100.00;97770.90;105403;1255;60260;-50
2023/11/24 06:24:59;;;;;;;1.50;1.20;;;;;;;4.17;100.00;97765.48;105340;1257;72957;-52
2023/11/24 06:27:27;;;;;;;1.60;0.80;;;;;;;4.19;100.00;97766.31;105278;1257;67430;-52
2023/11/24 06:29:54;;;;;;;1.60;0.90;;;;;;;4.20;100.00;97761.10;105112;1258;72631;-52
2023/11/24 06:32:22;;;;;;;1.10;0.80;;;;;;;4.23;100.00;97764.50;105296;1258;59809;-50
2023/11/24 06:34:49;;;;;;;1.30;0.90;;;;;;;4.24;100.00;97767.29;105222;1258;60051;-52
2023/11/24 06:37:17;;;;;;;3.20;1.20;;;;;;;4.26;100.00;97772.83;105069;1257;71846;-50
2023/11/24 06:39:45;;;;;;;2.70;0.90;;;;;;;4.28;100.00;97785.52;108775;1254;67332;-55
2023/11/24 06:42:12;;;;;;;1.10;0.90;;;;;;;4.29;100.00;97793.11;108631;1259;71535;-51
2023/11/24 06:44:40;;;;;;;1.70;0.90;;;;;;;4.30;100.00;97791.27;105219;1260;61429;-58
2023/11/24 06:47:07;;;;;;;2.60;0.80;;;;;;;4.33;100.00;97802.86;105113;1257;59970;-52
2023/11/24 06:49:35;;;;;;;1.30;1.00;;;;;;;4.34;100.00;97811.64;105187;1257;72952;-54
2023/11/24 06:52:02;;;;;;;1.70;0.90;;;;;;;4.35;100.00;97811.06;105088;1260;65612;-53
2023/11/24 06:54:30;;;;;;;1.40;1.00;;;;;;;4.37;100.00;97809.73;108685;1254;71497;-56
2023/11/24 06:56:57;;;;;;;1.10;0.90;;;;;;;4.38;100.00;97814.63;106617;1259;60993;-53
2023/11/24 06:59:27;;;;;;;1.50;1.00;;;;;;;4.39;100.00;97814.94;105182;1260;60102;-54
2023/11/24 07:01:55;;;;;;;1.30;1.00;;;;;;;4.40;100.00;97822.50;105074;1261;73577;-52
2023/11/24 07:04:23;;;;;;;1.00;0.80;;;;;;;4.42;100.00;97819.04;105312;1259;67351;-53
2023/11/24 07:06:50;;;;;;;1.20;0.80;;;;;;;4.44;100.00;97817.15;105231;1259;72159;-54
2023/11/24 07:09:19;;;;;;;1.50;1.00;;;;;;;4.44;100.00;97824.06;105240;1259;62867;-52
2023/11/24 07:11:50;;;;;;;1.60;0.80;;;;;;;4.46;100.00;97833.92;105400;1262;59559;-53
2023/11/24 07:14:18;;;;;;;2.10;0.90;;;;;;;4.48;100.00;97847.13;105398;1258;71252;-54
2023/11/24 07:16:45;;;;;;;1.00;0.70;;;;;;;4.49;100.00;97850.26;105394;1258;66783;-54
2023/11/24 07:19:13;;;;;;;1.40;0.90;;;;;;;4.49;100.00;97846.87;108775;1254;72787;-52
2023/11/24 07:21:40;;;;;;;1.50;0.80;;;;;;;4.50;100.00;97847.05;105840;1259;61004;-51
2023/11/24 07:24:08;;;;;;;1.70;0.80;;;;;;;4.51;100.00;97842.70;105327;1261;59721;-53
2023/11/24 07:26:36;;;;;;;1.70;1.10;;;;;;;4.52;100.00;97852.75;106009;1258;73741;-50
2023/11/24 07:29:03;;;;;;;1.20;0.90;;;;;;;4.53;100.00;97855.86;105275;1254;65695;-52
2023/11/24 07:31:31;;;;;;;1.00;0.80;;;;;;;4.54;100.00;97849.82;105078;1261;72738;-54
2023/11/24 07:33:58;;;;;;;1.20;0.80;;;;;;;4.52;100.00;97847.75;104908;1257;61002;-55
2023/11/24 07:36:26;;;;;;;1.10;0.80;;;;;;;4.51;100.00;97837.14;104699;1260;59672;-53
2023/11/24 07:38:53;;;;;;;1.20;0.90;;;;;;;4.49;100.00;97833.36;106550;1254;71829;-56
2023/11/24 07:41:22;;;;;;;1.20;0.90;;;;;;;4.46;100.00;97837.61;104519;1254;66898;-56
2023/11/24 07:43:49;;;;;;;1.00;0.80;;;;;;;4.45;100.00;97836.98;104887;1257;71495;-56
2023/11/24 07:46:17;;;;;;;1.30;0.90;;;;;;;4.44;100.00;97831.85;104838;1254;61136;-55
2023/11/24 07:48:45;;;;;;;1.20;0.90;;;;;;;4.44;100.00;97829.75;104822;1254;59531;-51
2023/11/24 07:51:12;;;;;;;1.60;1.00;;;;;;;4.44;100.00;97826.20;106432;1254;71400;-55
2023/11/24 07:53:40;;;;;;;1.20;0.70;;;;;;;4.45;100.00;97835.55;104505;1254;66004;-56
2023/11/24 07:56:08;;;;;;;2.10;0.90;;;;;;;4.46;100.00;97838.33;104737;1256;71576;-53
2023/11/24 07:58:35;;;;;;;1.20;0.80;;;;;;;4.47;100.00;97839.71;104550;1254;61348;-54
2023/11/24 08:01:03;;;;;;;1.10;0.80;;;;;;;4.48;100.00;97836.63;104579;1254;60045;-54
2023/11/24 08:03:35;;;;;;;1.00;0.70;;;;;;;4.49;100.00;97842.62;106485;1254;73569;-55
2023/11/24 08:06:07;;;;;;;1.10;0.70;;;;;;;4.51;100.00;97841.48;105309;1258;66163;-51
2023/11/24 08:08:35;;;;;;;1.00;0.80;;;;;;;4.52;100.00;97847.42;104812;1254;72748;-56
2023/11/24 08:11:03;;;;;;;2.60;1.30;;;;;;;4.54;100.00;97873.77;106077;1257;59769;-55
2023/11/24 08:13:30;;;;;;;1.30;0.80;;;;;;;4.56;100.00;97868.70;105242;1259;60420;-53
2023/11/24 08:15:58;;;;;;;1.90;0.80;;;;;;;4.58;100.00;97869.34;105220;1260;73144;-55
2023/11/24 08:18:25;;;;;;;1.30;0.90;;;;;;;4.62;100.00;97865.56;108934;1254;65698;-54
2023/11/24 08:20:53;;;;;;;2.30;0.90;;;;;;;4.65;100.00;97872.67;106210;1260;72763;-56
2023/11/24 08:23:21;;;;;;;1.10;0.80;;;;;;;4.67;100.00;97872.05;104734;1258;60351;-54
2023/11/24 08:25:48;;;;;;;0.90;0.70;;;;;;;4.70;100.00;97872.36;105198;1260;61101;-52
2023/11/24 08:28:16;;;;;;;1.10;0.60;;;;;;;4.72;100.00;97880.82;108977;1254;73024;-54
2023/11/24 08:30:43;;;;;;;2.00;0.70;;;;;;;4.74;100.00;97884.27;108933;1257;67198;-55
2023/11/24 08:33:11;;;;;;;1.90;0.60;;;;;;;4.78;100.00;97884.38;108788;1254;72765;-56
2023/11/24 08:35:38;;;;;;;0.90;0.60;;;;;;;4.84;100.00;97887.61;108829;1254;58765;-56
2023/11/24 08:38:06;;;;;;;1.40;0.70;;;;;;;4.90;100.00;97887.47;108944;1254;60076;-55
2023/11/24 08:40:33;;;;;;;0.70;0.60;;;;;;;4.95;100.00;97892.69;107529;1259;73686;-58
2023/11/24 08:43:01;;;;;;;2.20;0.70;;;;;;;5.01;100.00;97892.16;104687;1257;66146;-53
2023/11/24 08:45:28;;;;;;;0.80;0.60;;;;;;;5.08;100.00;97893.21;104643;1254;72858;-57
2023/11/24 08:47:56;;;;;;;0.80;0.60;;;;;;;5.15;100.00;97894.80;104657;1254;62022;-54
2023/11/24 08:50:23;;;;;;;1.30;0.60;;;;;;;5.22;100.00;97892.77;104951;1253;60386;-50
2023/11/24 08:52:52;;;;;;;1.30;0.60;;;;;;;5.28;100.00;97896.86;104740;1254;73814;-55
2023/11/24 08:55:19;;;;;;;0.90;0.60;;;;;;;5.35;100.00;97908.06;105030;1254;67124;-52
2023/11/24 08:57:47;;;;;;;1.60;0.60;;;;;;;5.39;100.00;97901.60;108855;1254;71973;-53
2023/11/24 09:00:15;;;;;;;0.90;0.80;;;;;;;5.42;100.00;97908.02;107883;1256;61791;-52
2023/11/24 09:02:43;;;;;;;1.00;0.60;;;;;;;5.46;100.00;97911.90;104878;1254;60298;-56
2023/11/24 09:05:11;;;;;;;1.90;0.60;;;;;;;5.48;100.00;97917.65;104656;1260;72632;-54
2023/11/24 09:07:39;;;;;;;0.90;0.70;;;;;;;5.51;100.00;97913.74;105038;1257;65670;-56
2023/11/24 09:10:08;;;;;;;1.00;0.50;;;;;;;5.54;100.00;97917.42;104525;1259;73606;-53
2023/11/24 09:12:36;;;;;;;1.10;0.70;;;;;;;5.56;100.00;97910.56;105354;1259;60434;-55
2023/11/24 09:15:07;;;;;;;1.10;0.60;;;;;;;5.58;100.00;97911.20;104760;1254;60555;-54
2023/11/24 09:17:34;;;;;;;1.20;0.50;;;;;;;5.59;100.00;97905.58;105651;1254;77807;-51
2023/11/24 09:20:05;;;;;;;1.40;0.50;;;;;;;5.62;100.00;97909.67;105554;1255;65512;-53
2023/11/24 09:22:33;;;;;;;0.90;0.50;;;;;;;5.65;100.00;97912.02;104959;1254;73778;-52
2023/11/24 09:25:02;;;;;;;0.90;0.60;;;;;;;5.65;100.00;97908.81;105100;1257;60526;-52
2023/11/24 09:27:34;;;;;;;1.30;0.60;;;;;;;5.64;100.00;97902.98;106022;1254;60437;-56
2023/11/24 09:30:04;;;;;;;1.50;0.60;;;;;;;5.64;100.00;97902.11;106249;1253;75463;-53
2023/11/24 09:32:34;;;;;;;0.80;0.50;;;;;;;5.63;100.00;97902.67;108925;1254;67024;-57
2023/11/24 09:35:05;;;;;;;2.40;0.50;;;;;;;5.63;100.00;97908.39;108805;1259;72754;-57
2023/11/24 09:37:33;;;;;;;0.80;0.50;;;;;;;5.63;100.00;97903.75;104782;1256;60530;-56
2023/11/24 09:40:03;;;;;;;2.80;0.50;;;;;;;5.65;100.00;97913.80;105423;1257;60681;-54
2023/11/24 09:42:32;;;;;;;1.50;0.50;;;;;;;5.65;100.00;97915.77;105352;1253;72994;-56
2023/11/24 09:45:02;;;;;;;1.10;0.40;;;;;;;5.64;100.00;97920.27;105828;1257;65815;-55
2023/11/24 09:47:31;;;;;;;0.60;0.40;;;;;;;5.63;100.00;97923.66;106128;1254;71633;-53
2023/11/24 09:49:58;;;;;;;0.60;0.40;;;;;;;5.64;100.00;97919.71;106174;1254;60329;-55
2023/11/24 09:52:27;;;;;;;1.20;0.40;;;;;;;5.64;100.00;97918.83;104988;1263;60441;-55
2023/11/24 09:54:58;;;;;;;0.70;0.50;;;;;;;5.63;100.00;97918.16;105002;1255;72411;-55
2023/11/24 09:57:26;;;;;;;1.10;0.50;;;;;;;5.63;100.00;97928.11;105871;1257;67312;-55
2023/11/24 09:59:53;;;;;;;0.90;0.60;;;;;;;5.65;100.00;97934.24;105413;1254;74683;-55
2023/11/24 10:02:22;;;;;;;0.70;0.40;;;;;;;5.66;100.00;97947.36;105145;1259;61360;-55
2023/11/24 10:04:49;;;;;;;0.90;0.50;;;;;;;5.67;100.00;97959.96;106893;1254;60548;-56
2023/11/24 10:07:21;;;;;;;0.60;0.40;;;;;;;5.68;100.00;97965.60;105004;1258;71699;-55
2023/11/24 10:09:49;;;;;;;0.90;0.30;;;;;;;5.70;100.00;97965.31;104907;1254;65855;-56
2023/11/24 10:12:17;;;;;;;0.70;0.40;;;;;;;5.71;100.00;97963.99;104854;1255;71442;-55
2023/11/24 10:14:44;;;;;;;0.60;0.40;;;;;;;5.70;100.00;97959.75;105029;1260;60546;-55
2023/11/24 10:17:12;;;;;;;0.40;0.40;;;;;;;5.70;100.00;97956.05;105079;1254;60351;-54
2023/11/24 10:19:40;;;;;;;1.60;0.40;;;;;;;5.69;100.00;97960.55;105296;1254;72682;-56
2023/11/24 10:22:07;;;;;;;0.50;0.40;;;;;;;5.69;100.00;97963.36;105283;1254;66930;-55
2023/11/24 10:24:37;;;;;;;1.40;0.40;;;;;;;5.71;100.00;97962.17;108656;1254;72020;-57
2023/11/24 10:27:22;;;;;;;0.40;0.30;;;;;;;5.70;100.00;97948.91;108864;1254;60115;-56
2023/11/24 10:29:50;;;;;;;0.60;0.20;;;;;;;5.68;100.00;97944.05;108876;1253;61746;-56
2023/11/24 10:32:18;;;;;;;0.70;0.30;;;;;;;5.67;100.00;97938.40;108955;1254;73957;-55
2023/11/24 10:34:49;;;;;;;0.50;0.50;;;;;;;5.67;100.00;97940.20;106439;1254;68378;-57
2023/11/24 10:37:21;;;;;;;1.30;0.40;;;;;;;5.68;100.00;97942.47;104561;1257;71923;-53
2023/11/24 10:39:51;;;;;;;0.50;0.40;;;;;;;5.70;100.00;97945.52;104856;1258;60546;-56
2023/11/24 10:42:19;;;;;;;0.80;0.40;;;;;;;5.74;100.00;97947.98;108675;1253;61121;-56
2023/11/24 10:44:52;;;;;;;3.80;0.40;;;;;;;5.78;100.00;97948.98;105333;1253;74413;-56
2023/11/24 10:47:29;;;;;;;1.50;0.30;;;;;;;5.82;100.00;97951.40;105143;1254;67632;-56
2023/11/24 10:50:08;;;;;;;1.20;0.30;;;;;;;5.84;100.00;97962.86;107401;1256;72715;-55
2023/11/24 10:52:41;;;;;;;0.30;0.20;;;;;;;5.87;100.00;97966.62;108764;1254;59648;-56
2023/11/24 10:55:13;;;;;;;0.50;0.30;;;;;;;5.89;100.00;97966.72;108985;1254;61394;-57
2023/11/24 10:57:42;;;;;;;0.80;0.20;;;;;;;5.90;100.00;97970.59;105447;1254;72684;-57
2023/11/24 11:00:14;;;;;;;0.50;0.30;;;;;;;5.92;100.00;97965.28;105398;1254;65742;-56
2023/11/24 11:02:42;;;;;;;0.30;0.20;;;;;;;5.95;100.00;97966.74;105304;1260;72417;-57
2023/11/24 11:05:47;;;;;;;1.00;0.30;;;;;;;5.97;100.00;97962.14;105472;1253;60594;-55
2023/11/24 11:08:19;;;;;;;0.60;0.20;;;;;;;5.97;100.00;97980.46;105366;1256;60636;-55
2023/11/24 11:11:06;;;;;;;0.40;0.30;;;;;;;5.95;100.00;97974.54;105352;1258;74060;-55
2023/11/24 11:13:34;;;;;;;0.50;0.30;;;;;;;5.92;100.00;97979.02;105314;1255;67324;-56
2023/11/24 11:16:04;;;;;;;0.70;0.30;;;;;;;5.90;100.00;97978.73;105289;1254;73521;-55
2023/11/24 11:18:33;;;;;;;1.40;0.30;;;;;;;5.88;100.00;97974.56;108956;1257;61043;-56
2023/11/24 11:21:11;;;;;;;0.80;0.30;;;;;;;5.85;100.00;97971.22;108890;1254;59387;-57
2023/11/24 11:23:38;;;;;;;0.80;0.20;;;;;;;5.84;100.00;97976.79;108902;1253;76131;-56
2023/11/24 11:26:06;;;;;;;0.60;0.30;;;;;;;5.85;100.00;97972.79;109027;1254;67178;-57
2023/11/24 11:28:43;;;;;;;0.90;0.30;;;;;;;5.88;100.00;97971.59;109016;1254;71439;-56
2023/11/24 11:31:21;;;;;;;0.50;0.30;;;;;;;5.91;100.00;97981.35;108905;1254;58479;-57